Time;durP1;ratioP1;P1;durP2;ratioP2;P2;SDS_P1;SDS_P2;PMS_P1;PMS_P2;Temp;Humidity;BMP_temperature;BMP_pressure;BME280_temperature;BME280_humidity;BME280_pressure;Samples;Min_cycle;Max_cycle;Signal;HPM_P1;HPM_P2
2022/12/08 00:01:11;;;;;;;19.77;12.00;;;;;;;;;;5027734;28;20199;-70
2022/12/08 00:03:38;;;;;;;19.00;11.00;;;;;;;;;;5030695;28;20200;-71
2022/12/08 00:11:41;;;;;;;17.73;10.93;;;;;;;;;;5031162;28;20208;-71
2022/12/08 00:14:10;;;;;;;21.93;11.63;;;;;;;;;;5030451;28;20203;-69
2022/12/08 00:16:37;;;;;;;22.47;12.27;;;;;;;;;;5028015;28;20211;-71
2022/12/08 00:19:04;;;;;;;21.53;12.87;;;;;;;;;;5028755;28;20238;-71
2022/12/08 00:21:31;;;;;;;20.17;12.43;;;;;;;;;;5029946;28;20197;-70
2022/12/08 00:23:58;;;;;;;23.87;12.30;;;;;;;;;;5030258;28;20200;-70
2022/12/08 00:26:25;;;;;;;24.70;13.57;;;;;;;;;;5028623;28;20204;-70
2022/12/08 00:28:52;;;;;;;24.27;12.77;;;;;;;;;;5029675;28;20228;-70
2022/12/08 00:31:21;;;;;;;22.13;12.67;;;;;;;;;;5030826;28;20227;-69
2022/12/08 00:33:48;;;;;;;20.80;12.87;;;;;;;;;;5027562;28;20208;-71
2022/12/08 00:36:15;;;;;;;23.07;13.43;;;;;;;;;;5027343;28;20196;-71
2022/12/08 00:38:43;;;;;;;20.33;12.20;;;;;;;;;;5027474;28;20206;-71
2022/12/08 00:41:13;;;;;;;20.03;11.73;;;;;;;;;;5029778;28;20251;-70
2022/12/08 00:43:40;;;;;;;19.53;11.67;;;;;;;;;;5026701;28;20204;-70
2022/12/08 00:46:07;;;;;;;23.87;12.53;;;;;;;;;;5023803;28;20208;-71
2022/12/08 00:48:36;;;;;;;20.73;11.83;;;;;;;;;;5030016;28;20236;-72
2022/12/08 00:51:03;;;;;;;22.57;11.90;;;;;;;;;;5029472;28;20192;-71
2022/12/08 00:53:31;;;;;;;20.50;12.30;;;;;;;;;;5028451;28;20212;-71
2022/12/08 00:55:58;;;;;;;21.27;11.23;;;;;;;;;;5024489;28;20200;-71
2022/12/08 00:58:25;;;;;;;20.67;12.50;;;;;;;;;;5027659;28;20208;-71
2022/12/08 01:00:52;;;;;;;22.63;11.77;;;;;;;;;;5028432;28;20236;-71
2022/12/08 01:03:19;;;;;;;18.50;11.97;;;;;;;;;;5035354;28;20210;-71
2022/12/08 01:05:48;;;;;;;16.20;10.50;;;;;;;;;;5028259;28;20200;-70
2022/12/08 01:08:15;;;;;;;17.87;11.13;;;;;;;;;;5024447;28;20224;-69
2022/12/08 01:10:42;;;;;;;23.53;12.63;;;;;;;;;;5028128;28;20204;-71
2022/12/08 01:13:10;;;;;;;22.00;13.20;;;;;;;;;;5026921;28;20228;-71
2022/12/08 01:15:37;;;;;;;20.00;12.57;;;;;;;;;;5025713;28;20292;-70
2022/12/08 01:18:04;;;;;;;22.70;12.90;;;;;;;;;;5029941;28;20199;-70
2022/12/08 01:20:32;;;;;;;23.50;13.03;;;;;;;;;;5029703;28;20204;-70
2022/12/08 01:23:00;;;;;;;23.03;12.87;;;;;;;;;;5027967;28;20199;-71
2022/12/08 01:25:27;;;;;;;22.03;13.43;;;;;;;;;;5028050;28;20208;-70
2022/12/08 01:27:54;;;;;;;22.73;13.57;;;;;;;;;;5028842;28;20732;-70
2022/12/08 01:30:22;;;;;;;21.63;12.60;;;;;;;;;;5028304;28;20214;-68
2022/12/08 01:32:49;;;;;;;23.80;13.43;;;;;;;;;;5028060;28;20218;-70
2022/12/08 01:35:16;;;;;;;20.67;11.83;;;;;;;;;;5029829;28;20219;-70
2022/12/08 01:37:43;;;;;;;25.70;13.73;;;;;;;;;;5029109;28;20218;-71
2022/12/08 01:40:12;;;;;;;21.83;12.23;;;;;;;;;;5027607;28;20342;-70
2022/12/08 01:42:39;;;;;;;20.17;11.30;;;;;;;;;;5029317;28;20211;-70
2022/12/08 01:45:07;;;;;;;23.93;12.70;;;;;;;;;;5020361;28;20196;-72
2022/12/08 01:47:37;;;;;;;21.90;12.30;;;;;;;;;;5030043;28;20222;-70
2022/12/08 01:50:06;;;;;;;21.60;11.97;;;;;;;;;;5028607;28;20215;-71
2022/12/08 01:52:36;;;;;;;21.10;12.80;;;;;;;;;;5027126;28;20226;-70
2022/12/08 01:55:05;;;;;;;23.07;12.50;;;;;;;;;;5028435;28;20201;-71
2022/12/08 01:57:35;;;;;;;22.17;12.20;;;;;;;;;;5027998;28;20204;-70
2022/12/08 02:00:06;;;;;;;25.23;13.00;;;;;;;;;;5028192;28;20219;-71
2022/12/08 02:02:38;;;;;;;24.63;13.07;;;;;;;;;;5025472;28;20200;-71
2022/12/08 02:05:08;;;;;;;21.77;12.53;;;;;;;;;;5022217;28;20209;-70
2022/12/08 02:07:36;;;;;;;22.57;13.40;;;;;;;;;;5023804;28;20235;-69
2022/12/08 02:10:03;;;;;;;18.77;12.30;;;;;;;;;;5026149;28;20208;-69
2022/12/08 02:12:30;;;;;;;25.70;12.97;;;;;;;;;;5023483;28;20207;-70
2022/12/08 02:14:59;;;;;;;20.23;11.37;;;;;;;;;;5026308;28;20203;-71
2022/12/08 02:17:34;;;;;;;22.00;12.77;;;;;;;;;;5026529;28;20282;-70
2022/12/08 02:20:19;;;;;;;23.83;12.03;;;;;;;;;;5026909;28;20207;-70
2022/12/08 02:22:50;;;;;;;18.43;11.57;;;;;;;;;;4964304;28;20253;-71
2022/12/08 02:25:22;;;;;;;17.20;10.77;;;;;;;;;;5019041;28;20204;-71
2022/12/08 02:27:58;;;;;;;18.40;10.80;;;;;;;;;;5027397;28;20236;-70
2022/12/08 02:30:30;;;;;;;18.10;11.40;;;;;;;;;;5023940;28;20218;-71
2022/12/08 02:33:18;;;;;;;18.40;10.77;;;;;;;;;;5025619;28;20208;-69
2022/12/08 02:35:50;;;;;;;18.70;11.03;;;;;;;;;;5030181;28;20202;-70
2022/12/08 02:38:20;;;;;;;17.43;11.10;;;;;;;;;;5032801;28;20193;-70
2022/12/08 02:40:51;;;;;;;19.13;10.90;;;;;;;;;;5030597;28;20246;-71
2022/12/08 02:43:23;;;;;;;18.83;11.37;;;;;;;;;;5030706;28;20210;-71
2022/12/08 02:45:53;;;;;;;17.77;11.27;;;;;;;;;;5032989;28;20201;-70
2022/12/08 02:48:20;;;;;;;18.10;10.43;;;;;;;;;;5031181;28;20224;-71
2022/12/08 02:50:49;;;;;;;18.40;11.50;;;;;;;;;;5032848;28;20205;-71
2022/12/08 02:53:16;;;;;;;21.00;11.93;;;;;;;;;;5030310;28;20224;-71
2022/12/08 02:55:47;;;;;;;17.13;10.90;;;;;;;;;;5031825;28;20219;-71
2022/12/08 02:58:27;;;;;;;17.57;11.03;;;;;;;;;;5031388;28;20214;-70
2022/12/08 03:01:01;;;;;;;16.97;11.17;;;;;;;;;;5031750;28;20200;-70
2022/12/08 03:03:32;;;;;;;17.70;11.23;;;;;;;;;;5031826;28;20212;-69
2022/12/08 03:06:07;;;;;;;16.10;10.03;;;;;;;;;;5030119;28;20200;-70
2022/12/08 03:08:36;;;;;;;17.93;10.47;;;;;;;;;;5029069;28;20506;-70
2022/12/08 03:11:05;;;;;;;16.63;9.60;;;;;;;;;;5030447;28;20212;-71
2022/12/08 03:13:35;;;;;;;19.57;10.23;;;;;;;;;;5027801;28;20200;-68
2022/12/08 03:16:04;;;;;;;17.03;10.40;;;;;;;;;;5030160;28;20200;-70
2022/12/08 03:18:32;;;;;;;17.00;9.87;;;;;;;;;;5030851;28;20196;-69
2022/12/08 03:20:59;;;;;;;17.47;10.27;;;;;;;;;;5028255;28;20219;-68
2022/12/08 03:23:28;;;;;;;14.77;9.67;;;;;;;;;;5030194;28;20200;-70
2022/12/08 03:25:58;;;;;;;17.00;9.60;;;;;;;;;;5034230;28;20208;-70
2022/12/08 03:28:26;;;;;;;14.00;9.33;;;;;;;;;;5030749;28;20235;-70
2022/12/08 03:30:55;;;;;;;15.73;9.37;;;;;;;;;;5028068;28;20231;-71
2022/12/08 03:33:25;;;;;;;15.63;9.23;;;;;;;;;;5030736;28;20204;-69
2022/12/08 03:35:52;;;;;;;13.00;9.40;;;;;;;;;;5025312;28;20208;-70
2022/12/08 03:38:19;;;;;;;15.07;8.77;;;;;;;;;;5023800;28;20192;-70
2022/12/08 03:41:17;;;;;;;13.47;8.70;;;;;;;;;;5027882;28;20211;-69
2022/12/08 03:43:35;;;;;;;14.70;9.20;;;;;;;;;;5024878;28;20247;-70
2022/12/08 03:46:03;;;;;;;14.63;8.90;;;;;;;;;;5029823;28;20770;-70
2022/12/08 03:48:30;;;;;;;13.90;8.07;;;;;;;;;;5026614;28;20310;-71
2022/12/08 03:50:57;;;;;;;11.00;7.63;;;;;;;;;;5030331;28;20204;-70
2022/12/08 03:53:24;;;;;;;12.23;8.03;;;;;;;;;;5028022;28;20202;-71
2022/12/08 03:55:53;;;;;;;12.53;7.53;;;;;;;;;;5030031;28;20207;-70
2022/12/08 03:58:20;;;;;;;10.43;7.10;;;;;;;;;;5030284;28;20283;-71
2022/12/08 04:00:47;;;;;;;8.50;6.53;;;;;;;;;;5027969;28;20215;-71
2022/12/08 04:03:14;;;;;;;7.87;6.00;;;;;;;;;;5031083;28;20264;-70
2022/12/08 04:05:41;;;;;;;6.97;5.67;;;;;;;;;;5026875;28;20211;-70
2022/12/08 04:08:09;;;;;;;7.83;5.60;;;;;;;;;;5029504;28;20216;-71
2022/12/08 04:10:36;;;;;;;9.00;5.43;;;;;;;;;;5031712;28;20204;-71
2022/12/08 04:13:04;;;;;;;7.17;5.33;;;;;;;;;;5028147;28;20204;-71
2022/12/08 04:15:31;;;;;;;6.37;5.20;;;;;;;;;;5029002;28;20207;-71
2022/12/08 04:17:58;;;;;;;7.03;5.17;;;;;;;;;;5028232;28;20208;-70
2022/12/08 04:20:26;;;;;;;6.67;4.90;;;;;;;;;;5029161;28;20204;-71
2022/12/08 04:22:53;;;;;;;6.93;5.23;;;;;;;;;;5029423;28;20273;-71
2022/12/08 04:25:20;;;;;;;6.57;4.87;;;;;;;;;;5027665;28;20204;-71
2022/12/08 04:27:47;;;;;;;6.40;4.83;;;;;;;;;;5029446;28;20238;-71
2022/12/08 04:30:15;;;;;;;5.93;5.23;;;;;;;;;;5030627;28;20204;-71
2022/12/08 04:32:43;;;;;;;8.00;5.30;;;;;;;;;;5030376;28;20200;-71
2022/12/08 04:35:10;;;;;;;8.03;4.90;;;;;;;;;;5030040;28;20206;-69
2022/12/08 04:37:37;;;;;;;6.03;5.20;;;;;;;;;;5028338;28;20200;-70
2022/12/08 04:40:04;;;;;;;7.93;5.43;;;;;;;;;;5026232;28;20208;-71
2022/12/08 04:42:32;;;;;;;6.50;5.00;;;;;;;;;;5028528;28;20196;-69
2022/12/08 04:44:59;;;;;;;8.63;5.30;;;;;;;;;;5026993;28;20204;-70
2022/12/08 04:47:27;;;;;;;16.50;11.23;;;;;;;;;;5028144;28;20196;-70
2022/12/08 04:49:54;;;;;;;10.27;7.30;;;;;;;;;;5024003;28;20201;-71
2022/12/08 04:52:22;;;;;;;7.97;6.67;;;;;;;;;;5026458;28;20210;-71
2022/12/08 04:54:49;;;;;;;9.03;6.17;;;;;;;;;;5028937;28;20204;-71
2022/12/08 04:57:16;;;;;;;7.47;5.30;;;;;;;;;;5025655;28;20207;-70
2022/12/08 04:59:43;;;;;;;7.83;5.70;;;;;;;;;;5027671;28;20211;-69
2022/12/08 05:02:12;;;;;;;7.93;5.60;;;;;;;;;;5027958;28;20219;-69
2022/12/08 05:04:40;;;;;;;7.53;5.27;;;;;;;;;;5025150;28;20201;-71
2022/12/08 05:07:07;;;;;;;7.70;5.30;;;;;;;;;;5025869;28;20211;-71
2022/12/08 05:09:34;;;;;;;6.23;5.37;;;;;;;;;;5025114;28;20235;-70
2022/12/08 05:12:02;;;;;;;6.87;5.30;;;;;;;;;;5026625;28;20208;-71
2022/12/08 05:14:29;;;;;;;6.07;4.50;;;;;;;;;;5028997;28;20206;-70
2022/12/08 05:16:56;;;;;;;6.40;4.90;;;;;;;;;;5025414;28;20204;-70
2022/12/08 05:19:23;;;;;;;5.73;4.27;;;;;;;;;;5031540;28;20199;-70
2022/12/08 05:21:51;;;;;;;7.07;5.20;;;;;;;;;;5029442;28;20196;-70
2022/12/08 05:24:19;;;;;;;6.20;5.20;;;;;;;;;;5026671;28;20238;-71
2022/12/08 05:26:46;;;;;;;7.80;4.63;;;;;;;;;;5027204;28;20200;-71
2022/12/08 05:29:13;;;;;;;5.67;4.63;;;;;;;;;;5028118;28;20238;-71
2022/12/08 05:31:40;;;;;;;5.60;4.70;;;;;;;;;;5027792;28;20208;-71
2022/12/08 05:34:08;;;;;;;6.90;4.83;;;;;;;;;;5032696;28;20204;-70
2022/12/08 05:36:35;;;;;;;8.13;4.83;;;;;;;;;;5024854;28;20207;-70
2022/12/08 05:39:03;;;;;;;8.17;4.77;;;;;;;;;;5020769;28;20196;-69
2022/12/08 05:41:30;;;;;;;6.93;4.77;;;;;;;;;;5020057;28;20220;-71
2022/12/08 05:43:58;;;;;;;4.77;4.20;;;;;;;;;;5028294;28;20196;-70
2022/12/08 05:46:25;;;;;;;4.73;4.20;;;;;;;;;;5029121;28;20200;-71
2022/12/08 05:48:52;;;;;;;6.07;4.60;;;;;;;;;;5020960;28;20217;-71
2022/12/08 05:51:20;;;;;;;6.67;4.70;;;;;;;;;;5017450;28;20211;-71
2022/12/08 05:53:48;;;;;;;7.07;4.50;;;;;;;;;;5022916;28;20311;-70
2022/12/08 05:56:17;;;;;;;5.40;4.30;;;;;;;;;;5025293;28;20270;-70
2022/12/08 05:58:44;;;;;;;4.57;3.90;;;;;;;;;;5022529;28;20196;-71
2022/12/08 06:01:18;;;;;;;5.13;4.00;;;;;;;;;;5022293;28;20211;-71
2022/12/08 06:03:46;;;;;;;7.10;4.57;;;;;;;;;;5017333;28;20207;-70
2022/12/08 06:06:13;;;;;;;4.93;4.00;;;;;;;;;;5027720;28;20203;-71
2022/12/08 06:08:40;;;;;;;6.50;4.23;;;;;;;;;;5026047;28;20251;-70
2022/12/08 06:11:07;;;;;;;5.37;4.33;;;;;;;;;;5030025;28;20274;-71
2022/12/08 06:13:36;;;;;;;4.50;4.00;;;;;;;;;;5029013;28;20232;-70
2022/12/08 06:16:04;;;;;;;6.83;4.13;;;;;;;;;;5026870;28;20211;-71
2022/12/08 06:18:32;;;;;;;5.53;3.93;;;;;;;;;;5027182;28;20223;-69
2022/12/08 06:21:03;;;;;;;5.47;4.07;;;;;;;;;;5024671;28;20248;-69
2022/12/08 06:23:30;;;;;;;5.17;3.97;;;;;;;;;;5030876;28;20207;-69
2022/12/08 06:26:00;;;;;;;4.33;3.93;;;;;;;;;;5026026;28;20212;-70
2022/12/08 06:28:28;;;;;;;5.30;3.60;;;;;;;;;;5032050;28;20227;-71
2022/12/08 06:30:57;;;;;;;5.83;4.50;;;;;;;;;;5030414;28;20212;-71
2022/12/08 06:33:24;;;;;;;4.57;4.03;;;;;;;;;;5027786;28;20208;-70
2022/12/08 06:35:51;;;;;;;7.87;4.30;;;;;;;;;;5025826;28;20206;-71
2022/12/08 06:38:19;;;;;;;5.03;4.17;;;;;;;;;;5029423;28;20200;-71
2022/12/08 06:40:53;;;;;;;5.23;4.30;;;;;;;;;;5022589;28;20228;-69
2022/12/08 06:43:20;;;;;;;5.60;4.60;;;;;;;;;;5020406;28;20203;-69
2022/12/08 06:45:47;;;;;;;6.23;4.70;;;;;;;;;;5030772;28;20212;-70
2022/12/08 06:48:16;;;;;;;6.10;4.90;;;;;;;;;;5032171;28;20222;-70
2022/12/08 06:50:43;;;;;;;6.90;4.90;;;;;;;;;;5026391;28;20211;-71
2022/12/08 06:53:11;;;;;;;6.43;5.00;;;;;;;;;;5015602;28;20239;-72
2022/12/08 06:55:39;;;;;;;6.87;4.77;;;;;;;;;;5019899;28;20208;-71
2022/12/08 06:58:06;;;;;;;5.93;5.30;;;;;;;;;;5026835;28;20204;-71
2022/12/08 07:00:33;;;;;;;6.37;5.00;;;;;;;;;;5032564;28;20200;-69
2022/12/08 07:03:01;;;;;;;6.80;5.40;;;;;;;;;;5030569;28;20211;-71
2022/12/08 07:05:29;;;;;;;7.87;5.20;;;;;;;;;;5029521;28;20216;-71
2022/12/08 07:07:57;;;;;;;6.67;5.70;;;;;;;;;;5028169;28;20231;-70
2022/12/08 07:10:24;;;;;;;8.50;5.97;;;;;;;;;;5031772;28;20221;-70
2022/12/08 07:12:51;;;;;;;8.83;7.03;;;;;;;;;;5026361;28;20291;-71
2022/12/08 07:15:19;;;;;;;10.10;6.40;;;;;;;;;;5020066;28;20294;-71
2022/12/08 07:17:47;;;;;;;8.53;5.53;;;;;;;;;;5028504;28;20224;-70
2022/12/08 07:20:15;;;;;;;6.57;5.70;;;;;;;;;;5028951;28;20247;-70
2022/12/08 07:22:48;;;;;;;8.10;5.87;;;;;;;;;;5027923;28;20254;-71
2022/12/08 07:25:16;;;;;;;7.07;5.23;;;;;;;;;;5029611;28;20204;-69
2022/12/08 07:27:46;;;;;;;9.80;6.00;;;;;;;;;;5031979;28;20236;-71
2022/12/08 07:30:14;;;;;;;8.03;6.40;;;;;;;;;;5025130;28;20227;-70
2022/12/08 07:32:42;;;;;;;7.87;6.40;;;;;;;;;;5031773;28;20306;-71
2022/12/08 07:35:11;;;;;;;7.00;5.83;;;;;;;;;;5033177;28;20212;-71
2022/12/08 07:37:39;;;;;;;9.60;7.13;;;;;;;;;;5030120;28;20239;-71
2022/12/08 07:40:08;;;;;;;8.40;6.17;;;;;;;;;;5032011;28;20208;-70
2022/12/08 07:42:36;;;;;;;9.03;6.47;;;;;;;;;;5023377;28;20271;-71
2022/12/08 07:45:03;;;;;;;10.87;5.80;;;;;;;;;;5032192;28;20208;-70
2022/12/08 07:47:31;;;;;;;7.97;6.57;;;;;;;;;;5025861;28;20228;-71
2022/12/08 07:49:58;;;;;;;8.80;6.97;;;;;;;;;;5028395;28;20224;-72
2022/12/08 07:52:26;;;;;;;13.30;7.23;;;;;;;;;;5031711;28;20208;-72
2022/12/08 07:54:53;;;;;;;8.67;6.37;;;;;;;;;;5031864;28;20208;-71
2022/12/08 07:57:21;;;;;;;9.33;7.17;;;;;;;;;;5026776;28;20298;-71
2022/12/08 07:59:49;;;;;;;9.47;7.53;;;;;;;;;;5028492;28;20203;-71
2022/12/08 08:02:17;;;;;;;9.60;6.60;;;;;;;;;;5029184;28;20200;-71
2022/12/08 08:04:44;;;;;;;11.13;7.67;;;;;;;;;;5030649;28;20294;-72
2022/12/08 08:07:12;;;;;;;8.03;6.37;;;;;;;;;;5029925;28;20200;-71
2022/12/08 08:09:39;;;;;;;11.83;7.47;;;;;;;;;;5027657;28;20232;-71
2022/12/08 08:12:07;;;;;;;8.53;7.47;;;;;;;;;;5027400;28;20204;-71
2022/12/08 08:14:35;;;;;;;9.00;7.00;;;;;;;;;;5027650;28;20201;-71
2022/12/08 08:17:02;;;;;;;10.00;6.73;;;;;;;;;;5029798;28;20204;-70
2022/12/08 08:19:30;;;;;;;9.93;6.73;;;;;;;;;;5030075;28;20204;-71
2022/12/08 08:21:57;;;;;;;8.90;6.73;;;;;;;;;;5018460;28;20208;-71
2022/12/08 08:24:24;;;;;;;9.13;7.43;;;;;;;;;;5020471;28;20215;-71
2022/12/08 08:26:54;;;;;;;7.33;6.43;;;;;;;;;;5024176;28;20200;-71
2022/12/08 08:29:21;;;;;;;8.23;7.00;;;;;;;;;;5031995;28;20236;-71
2022/12/08 08:31:50;;;;;;;10.17;7.20;;;;;;;;;;5031863;28;20356;-71
2022/12/08 08:34:17;;;;;;;9.03;7.20;;;;;;;;;;5028658;28;20231;-72
2022/12/08 08:36:44;;;;;;;10.00;7.47;;;;;;;;;;5030958;28;20204;-71
2022/12/08 08:39:12;;;;;;;8.93;7.03;;;;;;;;;;5031519;28;20207;-71
2022/12/08 08:41:40;;;;;;;8.87;6.93;;;;;;;;;;5029656;28;20232;-70
2022/12/08 08:44:07;;;;;;;10.27;7.83;;;;;;;;;;5029359;28;20211;-71
2022/12/08 08:46:34;;;;;;;8.27;6.93;;;;;;;;;;5025636;28;20266;-71
2022/12/08 08:49:03;;;;;;;17.80;11.47;;;;;;;;;;5025904;28;20234;-72
2022/12/08 08:51:31;;;;;;;11.83;9.07;;;;;;;;;;5031067;28;20226;-69
2022/12/08 08:53:58;;;;;;;12.30;7.80;;;;;;;;;;5030702;28;20278;-72
2022/12/08 08:56:26;;;;;;;9.20;7.53;;;;;;;;;;5028715;28;20285;-70
2022/12/08 08:58:54;;;;;;;10.97;6.80;;;;;;;;;;5030584;28;20204;-71
2022/12/08 09:01:22;;;;;;;8.90;7.07;;;;;;;;;;5027070;28;20208;-72
2022/12/08 09:03:49;;;;;;;10.57;7.63;;;;;;;;;;5030029;28;20196;-69
2022/12/08 09:06:19;;;;;;;10.70;7.07;;;;;;;;;;5028923;28;20208;-71
2022/12/08 09:08:47;;;;;;;8.20;6.87;;;;;;;;;;5029497;28;20215;-70
2022/12/08 09:11:17;;;;;;;10.47;7.40;;;;;;;;;;5024491;28;20204;-71
2022/12/08 09:13:44;;;;;;;9.67;7.13;;;;;;;;;;5022244;28;20210;-71
2022/12/08 09:16:13;;;;;;;10.20;7.50;;;;;;;;;;5028236;28;20214;-70
2022/12/08 09:18:42;;;;;;;10.87;7.70;;;;;;;;;;5029605;28;20196;-71
2022/12/08 09:21:11;;;;;;;10.90;7.50;;;;;;;;;;5027553;28;20196;-71
2022/12/08 09:23:40;;;;;;;9.30;7.63;;;;;;;;;;5029349;28;20467;-71
2022/12/08 09:26:07;;;;;;;10.20;7.97;;;;;;;;;;5030241;28;20212;-70
2022/12/08 09:28:36;;;;;;;11.63;8.60;;;;;;;;;;5026470;28;20232;-71
2022/12/08 09:31:04;;;;;;;9.93;7.93;;;;;;;;;;5023376;28;20247;-68
2022/12/08 09:33:31;;;;;;;9.33;7.90;;;;;;;;;;5018325;28;20200;-71
2022/12/08 09:36:03;;;;;;;9.03;7.73;;;;;;;;;;5023732;28;20262;-71
2022/12/08 09:38:30;;;;;;;11.67;7.90;;;;;;;;;;5027974;28;20236;-70
2022/12/08 09:41:00;;;;;;;12.37;8.70;;;;;;;;;;5031210;28;20204;-71
2022/12/08 09:43:41;;;;;;;8.77;7.87;;;;;;;;;;5028669;28;20207;-71
2022/12/08 09:46:10;;;;;;;10.77;7.90;;;;;;;;;;5026922;28;20211;-69
2022/12/08 09:48:40;;;;;;;9.60;7.43;;;;;;;;;;5029883;28;20208;-71
2022/12/08 09:51:09;;;;;;;9.80;7.87;;;;;;;;;;5033827;28;20262;-71
2022/12/08 09:53:37;;;;;;;11.33;8.40;;;;;;;;;;5034757;28;20265;-71
2022/12/08 09:56:09;;;;;;;9.43;7.67;;;;;;;;;;5034240;28;20204;-71
2022/12/08 09:58:44;;;;;;;9.03;7.40;;;;;;;;;;5034615;28;20212;-71
2022/12/08 10:01:12;;;;;;;9.87;7.07;;;;;;;;;;5032397;28;20196;-70
2022/12/08 10:03:41;;;;;;;9.63;6.90;;;;;;;;;;5034080;28;20204;-70
2022/12/08 10:06:12;;;;;;;8.40;6.57;;;;;;;;;;5029045;28;20208;-69
2022/12/08 10:08:44;;;;;;;8.30;6.37;;;;;;;;;;5033591;28;20219;-71
2022/12/08 10:11:17;;;;;;;11.67;8.40;;;;;;;;;;5033706;28;20234;-71
2022/12/08 10:13:49;;;;;;;11.20;8.50;;;;;;;;;;5033801;28;20243;-70
2022/12/08 10:16:20;;;;;;;9.50;7.30;;;;;;;;;;5035905;28;20211;-71
2022/12/08 10:18:53;;;;;;;10.37;7.57;;;;;;;;;;5036840;28;20208;-71
2022/12/08 10:21:24;;;;;;;15.40;7.60;;;;;;;;;;5034292;28;20204;-72
2022/12/08 10:23:53;;;;;;;9.20;7.17;;;;;;;;;;5034615;28;20200;-69
2022/12/08 10:26:22;;;;;;;9.60;7.27;;;;;;;;;;5034350;28;20216;-72
2022/12/08 10:28:50;;;;;;;9.10;7.43;;;;;;;;;;5028409;28;20236;-72
2022/12/08 10:31:17;;;;;;;8.33;7.30;;;;;;;;;;5028590;28;20670;-71
2022/12/08 10:33:46;;;;;;;10.73;6.87;;;;;;;;;;5029535;28;20216;-70
2022/12/08 10:36:13;;;;;;;10.20;7.57;;;;;;;;;;5025344;28;20211;-71
2022/12/08 10:38:40;;;;;;;9.93;7.57;;;;;;;;;;5028612;28;20246;-70
2022/12/08 10:41:12;;;;;;;9.70;6.83;;;;;;;;;;5031328;28;20228;-71
2022/12/08 10:43:45;;;;;;;9.27;7.87;;;;;;;;;;5021713;28;20210;-68
2022/12/08 10:46:13;;;;;;;9.60;7.60;;;;;;;;;;5018784;28;20224;-72
2022/12/08 10:48:48;;;;;;;10.03;7.20;;;;;;;;;;5029135;28;20204;-72
2022/12/08 10:51:22;;;;;;;9.20;7.57;;;;;;;;;;5028969;28;20215;-70
2022/12/08 10:53:50;;;;;;;10.13;8.07;;;;;;;;;;5033497;28;20269;-72
2022/12/08 10:56:17;;;;;;;9.00;7.70;;;;;;;;;;5028355;28;20227;-72
2022/12/08 10:58:46;;;;;;;10.57;7.63;;;;;;;;;;5020204;28;20228;-71
2022/12/08 11:01:15;;;;;;;11.33;8.30;;;;;;;;;;5022535;28;20264;-70
2022/12/08 11:03:45;;;;;;;7.93;6.87;;;;;;;;;;5033365;28;20201;-70
2022/12/08 11:06:15;;;;;;;11.90;8.50;;;;;;;;;;5025875;28;20208;-71
2022/12/08 11:08:48;;;;;;;8.43;7.30;;;;;;;;;;5021237;28;20204;-70
2022/12/08 11:11:15;;;;;;;9.57;7.67;;;;;;;;;;5028509;28;20224;-71
2022/12/08 11:13:42;;;;;;;12.03;8.10;;;;;;;;;;5029190;28;20201;-71
2022/12/08 11:16:12;;;;;;;11.13;8.23;;;;;;;;;;5030547;28;20231;-71
2022/12/08 11:18:40;;;;;;;9.93;7.67;;;;;;;;;;5029861;28;20208;-71
2022/12/08 11:21:10;;;;;;;9.83;8.07;;;;;;;;;;5030068;28;20209;-72
2022/12/08 11:23:37;;;;;;;9.00;7.60;;;;;;;;;;5033590;28;20201;-69
2022/12/08 11:26:07;;;;;;;10.00;7.93;;;;;;;;;;5031284;28;20215;-72
2022/12/08 11:28:35;;;;;;;11.50;8.00;;;;;;;;;;5022545;28;20240;-73
2022/12/08 11:31:05;;;;;;;10.53;8.20;;;;;;;;;;5029679;28;20224;-68
2022/12/08 11:33:34;;;;;;;11.03;7.77;;;;;;;;;;5024051;28;20196;-69
2022/12/08 11:36:02;;;;;;;9.50;7.63;;;;;;;;;;5029746;28;20249;-71
2022/12/08 11:38:30;;;;;;;9.37;7.80;;;;;;;;;;5023505;28;20223;-70
2022/12/08 11:41:00;;;;;;;9.67;7.87;;;;;;;;;;5029277;28;20200;-71
2022/12/08 11:43:30;;;;;;;9.20;7.67;;;;;;;;;;5028873;28;20200;-70
2022/12/08 11:45:59;;;;;;;11.30;7.57;;;;;;;;;;5032327;28;20204;-70
2022/12/08 11:48:29;;;;;;;9.47;7.20;;;;;;;;;;5028548;28;20210;-71
2022/12/08 11:51:00;;;;;;;8.50;7.67;;;;;;;;;;5031230;28;20290;-70
2022/12/08 11:53:29;;;;;;;9.73;7.07;;;;;;;;;;5031624;28;20210;-70
2022/12/08 11:55:58;;;;;;;13.83;7.03;;;;;;;;;;5031191;28;20204;-71
2022/12/08 11:58:27;;;;;;;10.40;8.07;;;;;;;;;;5028553;28;20356;-70
2022/12/08 12:00:54;;;;;;;11.80;8.00;;;;;;;;;;5028690;28;20207;-69
2022/12/08 12:03:27;;;;;;;10.10;8.10;;;;;;;;;;5029121;28;20227;-70
2022/12/08 12:06:03;;;;;;;10.33;7.70;;;;;;;;;;5030112;28;20204;-70
2022/12/08 12:08:38;;;;;;;8.93;7.47;;;;;;;;;;5025990;28;20211;-70
2022/12/08 12:11:09;;;;;;;13.20;8.60;;;;;;;;;;5020516;28;20225;-70
2022/12/08 12:13:46;;;;;;;11.40;8.20;;;;;;;;;;5026137;28;20206;-71
2022/12/08 12:16:25;;;;;;;10.57;8.40;;;;;;;;;;5028205;28;20208;-70
2022/12/08 12:18:54;;;;;;;10.47;7.67;;;;;;;;;;5030571;28;20210;-71
2022/12/08 12:21:26;;;;;;;9.17;7.33;;;;;;;;;;5031755;28;20196;-71
2022/12/08 12:23:54;;;;;;;12.20;8.00;;;;;;;;;;5023949;28;20259;-72
2022/12/08 12:26:22;;;;;;;8.73;7.47;;;;;;;;;;5030680;28;20204;-73
2022/12/08 12:28:52;;;;;;;9.17;7.77;;;;;;;;;;5029230;28;20236;-72
2022/12/08 12:31:22;;;;;;;10.33;7.97;;;;;;;;;;5025584;28;20239;-72
2022/12/08 12:33:50;;;;;;;9.23;7.00;;;;;;;;;;5026302;28;20196;-70
2022/12/08 12:36:17;;;;;;;8.93;7.53;;;;;;;;;;5029562;28;20200;-70
2022/12/08 12:39:03;;;;;;;9.73;6.93;;;;;;;;;;5028426;28;20205;-71
2022/12/08 12:41:33;;;;;;;8.27;6.97;;;;;;;;;;5030180;28;20219;-71
2022/12/08 12:44:21;;;;;;;10.13;7.33;;;;;;;;;;5025635;28;20209;-71
2022/12/08 12:46:59;;;;;;;10.83;6.97;;;;;;;;;;5028580;28;20208;-71
2022/12/08 12:49:45;;;;;;;11.17;7.80;;;;;;;;;;5028178;28;20207;-72
2022/12/08 12:52:30;;;;;;;10.77;7.67;;;;;;;;;;5028536;28;20228;-70
2022/12/08 12:55:16;;;;;;;8.40;6.70;;;;;;;;;;5026326;28;20204;-71
2022/12/08 12:57:51;;;;;;;8.43;6.70;;;;;;;;;;5024392;28;20204;-72
2022/12/08 13:00:19;;;;;;;8.60;6.70;;;;;;;;;;5026656;28;20203;-71
2022/12/08 13:02:47;;;;;;;9.13;7.37;;;;;;;;;;5026699;28;20208;-72
2022/12/08 13:05:16;;;;;;;7.83;6.90;;;;;;;;;;5029142;28;20227;-71
2022/12/08 13:07:46;;;;;;;6.80;6.03;;;;;;;;;;5029155;28;20208;-71
2022/12/08 13:10:17;;;;;;;10.53;8.73;;;;;;;;;;5025224;28;20210;-70
2022/12/08 13:12:45;;;;;;;8.13;6.80;;;;;;;;;;5028076;28;20204;-72
2022/12/08 13:15:18;;;;;;;9.27;7.30;;;;;;;;;;5029639;28;20299;-70
2022/12/08 13:17:46;;;;;;;11.77;7.57;;;;;;;;;;5029915;28;20200;-71
2022/12/08 13:20:19;;;;;;;9.37;6.43;;;;;;;;;;5025556;28;20205;-69
2022/12/08 13:22:47;;;;;;;10.07;6.70;;;;;;;;;;5023720;28;20211;-72
2022/12/08 13:25:33;;;;;;;9.97;6.60;;;;;;;;;;5031159;28;20200;-71
2022/12/08 13:28:08;;;;;;;8.43;6.80;;;;;;;;;;5030224;28;20228;-70
2022/12/08 13:30:45;;;;;;;9.43;7.17;;;;;;;;;;5023697;28;20223;-71
2022/12/08 13:33:16;;;;;;;8.07;6.67;;;;;;;;;;5026379;28;20207;-70
2022/12/08 13:35:47;;;;;;;10.20;6.63;;;;;;;;;;5020915;28;20200;-71
2022/12/08 13:38:16;;;;;;;9.33;6.80;;;;;;;;;;5028362;28;20223;-71
2022/12/08 13:40:44;;;;;;;10.67;6.50;;;;;;;;;;5028064;28;20200;-72
2022/12/08 13:43:16;;;;;;;7.97;6.23;;;;;;;;;;5027377;28;20204;-71
2022/12/08 13:45:45;;;;;;;7.77;6.00;;;;;;;;;;5028752;28;20208;-70
2022/12/08 13:48:15;;;;;;;13.43;6.70;;;;;;;;;;5027086;28;20211;-71
2022/12/08 13:50:44;;;;;;;7.50;6.70;;;;;;;;;;5026492;28;20216;-70
2022/12/08 13:53:13;;;;;;;9.23;6.87;;;;;;;;;;5028238;28;20196;-70
2022/12/08 13:55:43;;;;;;;11.13;6.57;;;;;;;;;;5023393;28;20208;-71
2022/12/08 13:58:17;;;;;;;10.27;6.60;;;;;;;;;;5022739;28;20226;-71
2022/12/08 14:00:53;;;;;;;7.60;6.23;;;;;;;;;;5028064;28;20242;-71
2022/12/08 14:03:20;;;;;;;7.57;6.70;;;;;;;;;;5026626;28;20207;-70
2022/12/08 14:05:48;;;;;;;8.27;6.93;;;;;;;;;;5027207;28;20201;-71
2022/12/08 14:08:19;;;;;;;9.77;7.83;;;;;;;;;;5028948;28;20211;-71
2022/12/08 14:10:48;;;;;;;8.53;6.50;;;;;;;;;;5030902;28;20233;-71
2022/12/08 14:13:15;;;;;;;11.27;7.13;;;;;;;;;;5022517;28;20204;-71
2022/12/08 14:15:42;;;;;;;10.37;7.27;;;;;;;;;;5022976;28;20210;-71
2022/12/08 14:18:23;;;;;;;8.77;6.10;;;;;;;;;;5026305;28;20212;-71
2022/12/08 14:20:59;;;;;;;8.13;5.90;;;;;;;;;;5023749;28;20197;-69
2022/12/08 14:23:26;;;;;;;7.10;5.90;;;;;;;;;;5025555;28;20199;-71
2022/12/08 14:25:54;;;;;;;9.63;5.60;;;;;;;;;;5028002;28;20200;-70
2022/12/08 14:28:22;;;;;;;10.17;7.03;;;;;;;;;;5024341;28;20235;-70
2022/12/08 14:30:50;;;;;;;8.57;6.20;;;;;;;;;;5031095;28;20220;-70
2022/12/08 14:33:17;;;;;;;7.50;6.50;;;;;;;;;;5032178;28;20204;-70
2022/12/08 14:35:50;;;;;;;9.93;6.03;;;;;;;;;;5027943;28;20212;-71
2022/12/08 14:38:18;;;;;;;7.20;5.40;;;;;;;;;;5031682;28;20212;-71
2022/12/08 14:40:46;;;;;;;6.27;4.77;;;;;;;;;;5029721;28;20200;-71
2022/12/08 14:43:15;;;;;;;5.23;4.67;;;;;;;;;;5029222;28;20211;-71
2022/12/08 14:45:53;;;;;;;5.20;4.70;;;;;;;;;;5028665;28;20215;-70
2022/12/08 14:48:25;;;;;;;6.13;4.70;;;;;;;;;;5032169;28;20288;-71
2022/12/08 14:51:05;;;;;;;4.83;4.37;;;;;;;;;;5028653;28;20231;-70